»·PEaware :: SWA481 KABQ-KSAN

SWA481 :: KABQ-KSAN

FLIGHT INFORMATION

Flight Status: Arrived
Operator:
Southwest Airlines
More flights by this operator :: More flights under this callsign
Pilot: Maximilliano F. (23467)
Aircraft: BOEING 737-800
(B738)
More flights by this aircraft type
Origin: KABQ Albuquerque Intl Sunport
United States
Destination: KSAN San Diego Intl-Lindbergh
United States
More flights between these airports :: More routes between these airports
Route: MNZNO3 SJN J18 HOGGZ LUCKI1
File this flight plan on PilotEdge
Remarks: RMK / SIMBRIEF
Altitude:
(Current/Filed)
34,000ft
Speed:
(Current/Filed)
472kts
Departed: 14-Oct-19 08:37 PM
Arrived: 14-Oct-19 10:15 PM
Distance/Time
Traveled:
544nm/1:38
Distance/Time
To Go:
Arrived

Flight Plot

Page will automatically refresh every two minutes.

Flight plan parsing failed; only flown route is shown


Map Options




Map Legend


Flown Route
Filed Route
Departure Airport
Arrival Airport
Navaid (VOR, NDB)
Fix

Horizontal Profiles

Position Reports

Time Latitude Longitude Heading Altitude Ground
Speed
14-Oct-19 20:04 35.047889 -106.614753 180 5323ft 0kts
14-Oct-19 20:05 35.047889 -106.614753 180 5323ft 0kts
14-Oct-19 20:06 35.047889 -106.614753 180 5323ft 0kts
14-Oct-19 20:07 35.047889 -106.614753 180 5323ft 0kts
14-Oct-19 20:08 35.047889 -106.614753 180 5323ft 0kts
14-Oct-19 20:09 35.047889 -106.614753 180 5322ft 0kts
14-Oct-19 20:10 35.047889 -106.614753 180 5322ft 0kts
14-Oct-19 20:11 35.047889 -106.614753 180 5322ft 0kts
14-Oct-19 20:12 35.047889 -106.614753 180 5322ft 0kts
14-Oct-19 20:13 35.047889 -106.614753 180 5322ft 0kts
14-Oct-19 20:14 35.047889 -106.614753 180 5322ft 0kts
14-Oct-19 20:15 35.047889 -106.614753 180 5322ft 0kts
14-Oct-19 20:16 35.047889 -106.614753 180 5322ft 0kts
14-Oct-19 20:17 35.047889 -106.614753 180 5322ft 0kts
14-Oct-19 20:18 35.047889 -106.614753 180 5322ft 0kts
14-Oct-19 20:19 35.047889 -106.614753 180 5322ft 0kts
14-Oct-19 20:20 35.047889 -106.614753 180 5322ft 0kts
14-Oct-19 20:21 35.047889 -106.614753 180 5322ft 0kts
14-Oct-19 20:22 35.047889 -106.614753 180 5322ft 0kts
14-Oct-19 20:23 35.048195 -106.614757 159 5323ft 2kts
14-Oct-19 20:24 35.048366 -106.615112 89 5322ft 0kts
14-Oct-19 20:25 35.048366 -106.615112 89 5322ft 0kts
14-Oct-19 20:26 35.048366 -106.615112 89 5322ft 0kts
14-Oct-19 20:27 35.048366 -106.615112 89 5322ft 0kts
14-Oct-19 20:28 35.048348 -106.614311 90 5322ft 3kts
14-Oct-19 20:29 35.047012 -106.613095 181 5322ft 10kts
14-Oct-19 20:30 35.045553 -106.615291 270 5322ft 11kts
14-Oct-19 20:31 35.045585 -106.620590 270 5322ft 14kts
14-Oct-19 20:32 35.045277 -106.621361 196 5322ft 0kts
14-Oct-19 20:33 35.045277 -106.621361 196 5322ft 0kts
14-Oct-19 20:34 35.045277 -106.621361 196 5322ft 0kts
14-Oct-19 20:35 35.044352 -106.620772 95 5322ft 11kts
14-Oct-19 20:36 35.044212 -106.580621 89 5656ft 197kts
14-Oct-19 20:37 35.017785 -106.528457 153 7711ft 230kts
14-Oct-19 20:38 34.946276 -106.511734 184 10038ft 284kts
14-Oct-19 20:39 34.864056 -106.515026 183 12995ft 313kts
14-Oct-19 20:40 34.791400 -106.563578 241 15669ft 328kts
14-Oct-19 20:41 34.753578 -106.659709 248 19380ft 320kts
14-Oct-19 20:42 34.717317 -106.757089 245 22530ft 317kts
14-Oct-19 20:43 34.677623 -106.857812 245 24618ft 343kts
14-Oct-19 20:44 34.637500 -106.961298 244 27377ft 344kts
14-Oct-19 20:45 34.597306 -107.067267 250 29991ft 343kts
14-Oct-19 20:46 34.570057 -107.178643 252 32388ft 343kts
14-Oct-19 20:47 34.543305 -107.287150 252 34122ft 341kts
14-Oct-19 20:48 34.515227 -107.399645 251 34131ft 366kts
14-Oct-19 20:49 34.486148 -107.515757 251 34124ft 360kts
14-Oct-19 20:50 34.456857 -107.632052 252 34125ft 361kts
14-Oct-19 20:51 34.433595 -107.749219 261 34145ft 364kts
14-Oct-19 20:52 34.432770 -107.872218 264 34139ft 366kts
14-Oct-19 20:53 34.432567 -107.995244 264 34135ft 364kts
14-Oct-19 20:54 34.432220 -108.118825 264 34170ft 367kts
14-Oct-19 20:55 34.431767 -108.242249 264 34208ft 367kts
14-Oct-19 20:56 34.431181 -108.365751 264 34211ft 368kts
14-Oct-19 20:57 34.430461 -108.490161 264 34208ft 370kts
14-Oct-19 20:58 34.429612 -108.615070 264 34205ft 373kts
14-Oct-19 20:59 34.428588 -108.736669 264 34223ft 374kts
14-Oct-19 21:00 34.427470 -108.862385 264 34222ft 375kts
14-Oct-19 21:01 34.426235 -108.989070 264 34217ft 376kts
14-Oct-19 21:02 34.424160 -109.115787 259 34201ft 375kts
14-Oct-19 21:03 34.393560 -109.234771 247 34186ft 371kts
14-Oct-19 21:04 34.354559 -109.350453 247 34183ft 371kts
14-Oct-19 21:05 34.315707 -109.465566 247 34180ft 370kts
14-Oct-19 21:06 34.276871 -109.580222 247 34177ft 369kts
14-Oct-19 21:07 34.239810 -109.688607 246 34193ft 368kts
14-Oct-19 21:08 34.200977 -109.802200 246 34207ft 367kts
14-Oct-19 21:09 34.162175 -109.915517 246 34223ft 366kts
14-Oct-19 21:10 34.123220 -110.028869 246 34216ft 366kts
14-Oct-19 21:11 34.084064 -110.142402 246 34181ft 367kts
14-Oct-19 21:12 34.044771 -110.255922 246 34163ft 367kts
14-Oct-19 21:13 34.005150 -110.369832 246 34160ft 370kts
14-Oct-19 21:14 33.965392 -110.483242 246 34157ft 367kts
14-Oct-19 21:15 33.925654 -110.596810 246 34155ft 370kts
14-Oct-19 21:16 33.887035 -110.706582 246 34183ft 371kts
14-Oct-19 21:17 33.846743 -110.820886 246 34180ft 372kts
14-Oct-19 21:18 33.806028 -110.935495 246 34147ft 374kts
14-Oct-19 21:19 33.765134 -111.050713 246 34052ft 376kts
14-Oct-19 21:20 33.723889 -111.166507 246 33981ft 377kts
14-Oct-19 21:21 33.682454 -111.282348 246 33978ft 379kts
14-Oct-19 21:22 33.640525 -111.398822 246 33975ft 380kts
14-Oct-19 21:23 33.598560 -111.515381 246 33973ft 381kts
14-Oct-19 21:24 33.556372 -111.632133 246 33970ft 382kts
14-Oct-19 21:25 33.513872 -111.749067 246 33987ft 384kts
14-Oct-19 21:26 33.471129 -111.866519 246 33983ft 382kts
14-Oct-19 21:27 33.424500 -111.982057 236 33975ft 384kts
14-Oct-19 21:28 33.357263 -112.083067 234 33962ft 389kts
14-Oct-19 21:30 33.289381 -112.183892 234 33958ft 387kts
14-Oct-19 21:31 33.222152 -112.283509 234 33956ft 387kts
14-Oct-19 21:32 33.154396 -112.383617 234 33952ft 386kts
14-Oct-19 21:33 33.087011 -112.482922 234 33948ft 386kts
14-Oct-19 21:34 33.019552 -112.582060 234 33937ft 386kts
14-Oct-19 21:35 32.960572 -112.686105 249 33949ft 381kts
14-Oct-19 21:36 32.937922 -112.810202 258 33943ft 385kts
14-Oct-19 21:37 32.921072 -112.936078 258 33938ft 386kts
14-Oct-19 21:38 32.903911 -113.062425 258 33930ft 388kts
14-Oct-19 21:39 32.886692 -113.188139 258 33935ft 389kts
14-Oct-19 21:40 32.869227 -113.314780 258 33931ft 389kts
14-Oct-19 21:41 32.851572 -113.441800 258 33930ft 389kts
14-Oct-19 21:42 32.833781 -113.568754 258 33927ft 389kts
14-Oct-19 21:43 32.816064 -113.694021 258 33942ft 390kts
14-Oct-19 21:44 32.797641 -113.820596 258 33942ft 389kts
14-Oct-19 21:45 32.779434 -113.947692 258 33939ft 389kts
14-Oct-19 21:46 32.774935 -114.076663 268 33946ft 398kts
14-Oct-19 21:47 32.780539 -114.208675 269 33935ft 399kts
14-Oct-19 21:48 32.785751 -114.340257 269 33933ft 400kts
14-Oct-19 21:49 32.810510 -114.470578 283 33929ft 411kts
14-Oct-19 21:49 32.840328 -114.578029 282 33928ft 413kts
14-Oct-19 21:51 32.876638 -114.728577 272 33945ft 407kts
14-Oct-19 21:52 32.876399 -114.862771 266 33940ft 406kts
14-Oct-19 21:52 32.873915 -114.973975 266 33929ft 388kts
14-Oct-19 21:53 32.871026 -115.097921 266 33944ft 378kts
14-Oct-19 21:54 32.867967 -115.224795 266 32803ft 390kts
14-Oct-19 21:55 32.863282 -115.353149 262 29468ft 398kts
14-Oct-19 21:56 32.845196 -115.481865 261 26139ft 389kts
14-Oct-19 21:57 32.825239 -115.605019 260 25940ft 383kts
14-Oct-19 21:58 32.804949 -115.728714 260 25945ft 382kts
14-Oct-19 21:59 32.785369 -115.849186 263 23452ft 374kts
14-Oct-19 22:00 32.776126 -115.970019 265 22958ft 372kts
14-Oct-19 22:01 32.767116 -116.089977 265 20892ft 366kts
14-Oct-19 22:02 32.757663 -116.214410 265 16387ft 387kts
14-Oct-19 22:03 32.748263 -116.335058 265 14506ft 336kts
14-Oct-19 22:04 32.740013 -116.441059 265 12214ft 330kts
14-Oct-19 22:05 32.731090 -116.545476 264 10864ft 287kts
14-Oct-19 22:06 32.721972 -116.638953 264 9984ft 287kts
14-Oct-19 22:07 32.714166 -116.733657 265 7664ft 300kts
14-Oct-19 22:08 32.703219 -116.831109 253 6002ft 278kts
14-Oct-19 22:09 32.679286 -116.909850 251 5113ft 248kts
14-Oct-19 22:10 32.683804 -116.986176 287 3850ft 228kts
14-Oct-19 22:11 32.700735 -117.054664 287 2492ft 189kts
14-Oct-19 22:12 32.712939 -117.104800 287 1535ft 148kts
14-Oct-19 22:13 32.724646 -117.153098 286 668ft 144kts
14-Oct-19 22:14 32.734439 -117.193280 285 21ft 28kts
14-Oct-19 22:15 32.733733 -117.194682 109 21ft 6kts
14-Oct-19 22:16 32.732479 -117.194676 208 21ft 6kts
14-Oct-19 22:17 32.731600 -117.195294 258 21ft 2kts
14-Oct-19 22:18 32.731563 -117.195534 259 21ft 0kts
14-Oct-19 22:19 32.731563 -117.195534 259 21ft 0kts
14-Oct-19 22:20 32.731563 -117.195534 259 21ft 0kts
14-Oct-19 22:21 32.728345 -117.167907 286 267ft 152kts
14-Oct-19 22:22 32.728896 -117.170213 286 209ft 152kts

Navigation Log

Ident Type
Flight plan parsing failed, navigation log unavailable